Time;durP1;ratioP1;P1;durP2;ratioP2;P2;SDS_P1;SDS_P2;PMS_P1;PMS_P2;Temp;Humidity;BMP_temperature;BMP_pressure;BME280_temperature;BME280_humidity;BME280_pressure;Samples;Min_cycle;Max_cycle;Signal;HPM_P1;HPM_P2
2022/07/26 00:01:09;;;;;;;;;;;28.80;43.40;;;;;;1550920;75;723;-56
2022/07/26 00:03:11;;;;;;;;;;;28.80;43.40;;;;;;1561159;75;1136;-56
2022/07/26 00:05:13;;;;;;;;;;;28.80;43.40;;;;;;1559982;75;690;-54
2022/07/26 00:07:15;;;;;;;;;;;28.80;43.40;;;;;;1555886;75;1368;-54
2022/07/26 00:09:17;;;;;;;;;;;28.80;43.40;;;;;;1569744;75;690;-56
2022/07/26 00:11:19;;;;;;;;;;;28.80;43.40;;;;;;1558904;75;680;-58
2022/07/26 00:13:21;;;;;;;;;;;28.80;43.40;;;;;;1574515;75;1941;-58
2022/07/26 00:15:23;;;;;;;;;;;28.80;43.40;;;;;;1560249;75;690;-58
2022/07/26 00:17:24;;;;;;;;;;;28.80;43.40;;;;;;1567097;75;671;-57
2022/07/26 00:19:26;;;;;;;;;;;28.80;43.60;;;;;;1555807;75;647;-55
2022/07/26 00:21:29;;;;;;;;;;;28.70;43.50;;;;;;1564581;75;1499;-55
2022/07/26 00:23:31;;;;;;;;;;;28.80;43.50;;;;;;1567883;74;1168;-57
2022/07/26 00:25:33;;;;;;;;;;;28.70;43.50;;;;;;1559894;75;708;-56
2022/07/26 00:27:38;;;;;;;;;;;28.80;43.60;;;;;;1555341;74;680;-54
2022/07/26 00:29:39;;;;;;;;;;;28.70;43.60;;;;;;1560572;75;697;-57
2022/07/26 00:31:41;;;;;;;;;;;28.70;43.60;;;;;;1567834;75;1078;-54
2022/07/26 00:33:45;;;;;;;;;;;28.80;43.60;;;;;;1541906;75;1924;-54
2022/07/26 00:35:47;;;;;;;;;;;28.70;43.60;;;;;;1558607;75;1602;-57
2022/07/26 00:37:49;;;;;;;;;;;28.80;43.60;;;;;;1560341;75;662;-57
2022/07/26 00:39:50;;;;;;;;;;;28.70;43.70;;;;;;1559222;75;696;-57
2022/07/26 00:41:52;;;;;;;;;;;28.80;43.70;;;;;;1576880;74;1112;-57
2022/07/26 00:43:55;;;;;;;;;;;28.70;43.80;;;;;;1562732;75;640;-56
2022/07/26 00:45:57;;;;;;;;;;;28.70;43.80;;;;;;1547682;75;771;-57
2022/07/26 00:47:59;;;;;;;;;;;28.70;43.80;;;;;;1574301;75;609;-56
2022/07/26 00:50:00;;;;;;;;;;;28.70;43.90;;;;;;1574631;72;232047;-66
2022/07/26 00:52:04;;;;;;;;;;;28.70;43.80;;;;;;1588501;73;1929;-69
2022/07/26 00:54:06;;;;;;;;;;;28.70;43.90;;;;;;1609554;73;733;-67
2022/07/26 00:56:08;;;;;;;;;;;28.70;43.90;;;;;;1588058;73;717;-67
2022/07/26 00:58:10;;;;;;;;;;;28.70;43.90;;;;;;1605481;73;635;-67
2022/07/26 01:00:14;;;;;;;;;;;28.70;43.90;;;;;;1595906;74;1169;-67
2022/07/26 01:02:16;;;;;;;;;;;28.70;43.90;;;;;;1595917;73;745;-67
2022/07/26 01:04:17;;;;;;;;;;;28.70;43.90;;;;;;1592136;74;1709;-67
2022/07/26 01:06:20;;;;;;;;;;;28.70;43.90;;;;;;1588863;74;681;-66
2022/07/26 01:08:22;;;;;;;;;;;28.70;44.00;;;;;;1595969;73;677;-69
2022/07/26 01:10:23;;;;;;;;;;;28.70;44.00;;;;;;1595835;74;1140;-66
2022/07/26 01:12:26;;;;;;;;;;;28.80;44.00;;;;;;1595787;73;1929;-66
2022/07/26 01:14:27;;;;;;;;;;;28.70;44.00;;;;;;1587599;73;784;-67
2022/07/26 01:16:29;;;;;;;;;;;28.70;44.00;;;;;;1583131;73;1559;-67
2022/07/26 01:18:31;;;;;;;;;;;28.70;44.00;;;;;;1590023;74;1296;-66
2022/07/26 01:20:33;;;;;;;;;;;28.70;43.90;;;;;;1589324;73;691;-66
2022/07/26 01:22:35;;;;;;;;;;;28.70;44.00;;;;;;1593933;74;815;-67
2022/07/26 01:24:37;;;;;;;;;;;28.70;44.00;;;;;;1589338;74;695;-68
2022/07/26 01:26:39;;;;;;;;;;;28.70;44.00;;;;;;1582450;73;777;-67
2022/07/26 01:28:41;;;;;;;;;;;28.70;44.00;;;;;;1592033;74;1126;-65
2022/07/26 01:30:43;;;;;;;;;;;28.70;44.00;;;;;;1591501;74;1590;-65
2022/07/26 01:32:45;;;;;;;;;;;28.70;43.90;;;;;;1584067;73;1933;-65
2022/07/26 01:34:47;;;;;;;;;;;28.70;44.00;;;;;;1592889;74;768;-65
2022/07/26 01:36:49;;;;;;;;;;;28.70;43.90;;;;;;1584415;73;718;-64
2022/07/26 01:38:51;;;;;;;;;;;28.70;44.00;;;;;;1590417;74;1151;-65
2022/07/26 01:40:53;;;;;;;;;;;28.70;44.00;;;;;;1600880;73;754;-65
2022/07/26 01:42:55;;;;;;;;;;;28.60;44.00;;;;;;1593501;73;769;-63
2022/07/26 01:44:57;;;;;;;;;;;28.70;44.00;;;;;;1590992;73;1584;-65
2022/07/26 01:46:59;;;;;;;;;;;28.60;44.00;;;;;;1587272;73;655;-65
2022/07/26 01:49:01;;;;;;;;;;;28.70;44.00;;;;;;1590777;74;1151;-68
2022/07/26 01:51:03;;;;;;;;;;;28.60;44.00;;;;;;1593263;73;817;-66
2022/07/26 01:53:05;;;;;;;;;;;28.60;44.00;;;;;;1595293;73;1929;-65
2022/07/26 01:55:07;;;;;;;;;;;28.60;44.00;;;;;;1592821;73;708;-64
2022/07/26 01:57:09;;;;;;;;;;;28.60;44.00;;;;;;1583464;74;651;-64
2022/07/26 01:59:10;;;;;;;;;;;28.70;44.00;;;;;;1593980;74;1359;-65
2022/07/26 02:01:12;;;;;;;;;;;28.70;44.00;;;;;;1586074;73;711;-64
2022/07/26 02:03:14;;;;;;;;;;;28.70;44.00;;;;;;1592004;73;684;-64
2022/07/26 02:05:16;;;;;;;;;;;28.60;44.00;;;;;;1588887;74;735;-65
2022/07/26 02:07:18;;;;;;;;;;;28.60;44.00;;;;;;1595353;74;710;-68
2022/07/26 02:09:20;;;;;;;;;;;28.60;44.00;;;;;;1582195;73;1141;-65
2022/07/26 02:11:22;;;;;;;;;;;28.60;44.10;;;;;;1583598;73;658;-66
2022/07/26 02:13:24;;;;;;;;;;;28.60;44.00;;;;;;1597319;73;1940;-65
2022/07/26 02:15:25;;;;;;;;;;;28.60;44.10;;;;;;1608012;73;685;-66
2022/07/26 02:17:27;;;;;;;;;;;28.70;44.00;;;;;;1602982;73;769;-65
2022/07/26 02:19:29;;;;;;;;;;;28.70;44.10;;;;;;1588768;74;1080;-65
2022/07/26 02:21:31;;;;;;;;;;;28.60;44.00;;;;;;1592113;73;682;-68
2022/07/26 02:23:33;;;;;;;;;;;28.60;44.00;;;;;;1593418;74;719;-69
2022/07/26 02:25:35;;;;;;;;;;;28.60;44.00;;;;;;1593259;73;715;-66
2022/07/26 02:27:37;;;;;;;;;;;28.50;44.10;;;;;;1594973;73;1708;-67
2022/07/26 02:29:39;;;;;;;;;;;28.60;44.00;;;;;;1595780;73;1139;-67
2022/07/26 02:31:41;;;;;;;;;;;28.60;44.00;;;;;;1594405;74;686;-68
2022/07/26 02:33:43;;;;;;;;;;;28.60;44.10;;;;;;1569385;73;1936;-66
2022/07/26 02:35:45;;;;;;;;;;;28.60;44.10;;;;;;1594158;74;811;-67
2022/07/26 02:37:47;;;;;;;;;;;28.60;44.10;;;;;;1595677;73;753;-67
2022/07/26 02:39:48;;;;;;;;;;;28.60;44.00;;;;;;1594572;73;1122;-67
2022/07/26 02:41:50;;;;;;;;;;;28.60;44.00;;;;;;1577463;73;1558;-68
2022/07/26 02:43:52;;;;;;;;;;;28.50;44.00;;;;;;1588218;73;846;-66
2022/07/26 02:45:54;;;;;;;;;;;28.60;43.90;;;;;;1590774;74;775;-67
2022/07/26 02:47:56;;;;;;;;;;;28.60;43.90;;;;;;1595073;73;719;-67
2022/07/26 02:49:58;;;;;;;;;;;28.60;43.90;;;;;;1593709;74;1125;-68
2022/07/26 02:52:00;;;;;;;;;;;28.60;44.00;;;;;;1584961;73;810;-67
2022/07/26 02:54:02;;;;;;;;;;;28.60;43.90;;;;;;1590279;73;1926;-67
2022/07/26 02:56:04;;;;;;;;;;;28.50;44.00;;;;;;1592512;74;1575;-68
2022/07/26 02:58:06;;;;;;;;;;;28.50;44.00;;;;;;1595255;74;675;-68
2022/07/26 03:00:08;;;;;;;;;;;28.60;44.00;;;;;;1593695;73;1097;-67
2022/07/26 03:02:10;;;;;;;;;;;28.60;44.00;;;;;;1592674;73;672;-68
2022/07/26 03:04:12;;;;;;;;;;;28.60;44.00;;;;;;1592548;73;712;-70
2022/07/26 03:06:14;;;;;;;;;;;28.60;44.00;;;;;;1594603;74;767;-69
2022/07/26 03:08:16;;;;;;;;;;;28.60;44.00;;;;;;1595118;74;726;-69
2022/07/26 03:10:18;;;;;;;;;;;28.60;44.00;;;;;;1599444;73;1594;-71
2022/07/26 03:12:19;;;;;;;;;;;28.60;44.00;;;;;;1595892;74;759;-72
2022/07/26 03:14:21;;;;;;;;;;;28.60;44.10;;;;;;1595823;74;1936;-70
2022/07/26 03:16:23;;;;;;;;;;;28.60;44.10;;;;;;1594466;73;690;-71
2022/07/26 03:18:25;;;;;;;;;;;28.60;44.10;;;;;;1593610;74;729;-74
2022/07/26 03:20:27;;;;;;;;;;;28.70;44.10;;;;;;1593587;73;669;-70
2022/07/26 03:22:29;;;;;;;;;;;28.70;44.00;;;;;;1583168;74;671;-70
2022/07/26 03:24:31;;;;;;;;;;;28.70;44.00;;;;;;1585378;73;1605;-70
2022/07/26 03:26:33;;;;;;;;;;;28.60;44.00;;;;;;1593123;74;703;-71
2022/07/26 03:28:35;;;;;;;;;;;28.60;44.00;;;;;;1595188;73;1131;-70
2022/07/26 03:30:36;;;;;;;;;;;28.70;44.00;;;;;;1595015;73;739;-70
2022/07/26 03:32:38;;;;;;;;;;;28.70;44.00;;;;;;1594708;73;632;-71
2022/07/26 03:34:40;;;;;;;;;;;28.60;44.10;;;;;;1584618;73;1934;-72
2022/07/26 03:36:47;;;;;;;;;;;28.70;44.00;;;;;;1586139;73;653;-69
2022/07/26 03:38:46;;;;;;;;;;;28.70;44.00;;;;;;1593725;73;1726;-70
2022/07/26 03:40:47;;;;;;;;;;;28.70;44.00;;;;;;1605512;73;799;-70
2022/07/26 03:42:50;;;;;;;;;;;28.60;44.10;;;;;;1594422;73;605;-69
2022/07/26 03:44:52;;;;;;;;;;;28.70;43.90;;;;;;1585898;73;685;-70
2022/07/26 03:46:54;;;;;;;;;;;28.60;43.90;;;;;;1595314;74;676;-69
2022/07/26 03:48:56;;;;;;;;;;;28.60;44.00;;;;;;1586730;74;1173;-70
2022/07/26 03:50:57;;;;;;;;;;;28.60;43.90;;;;;;1594854;73;781;-72
2022/07/26 03:52:59;;;;;;;;;;;28.60;43.90;;;;;;1578194;73;1934;-70
2022/07/26 03:56:27;;;;;;;;;;;28.70;43.90;;;;;;1596001;74;725;-70
2022/07/26 03:57:05;;;;;;;;;;;28.70;43.90;;;;;;1588504;73;1445;-70
2022/07/26 03:59:07;;;;;;;;;;;28.70;43.90;;;;;;1589824;74;1159;-70
2022/07/26 04:01:09;;;;;;;;;;;28.70;43.90;;;;;;1586684;73;720;-70
2022/07/26 04:03:11;;;;;;;;;;;28.70;43.80;;;;;;1583293;74;745;-71
2022/07/26 04:05:13;;;;;;;;;;;28.70;43.90;;;;;;1593120;74;1542;-71
2022/07/26 04:07:15;;;;;;;;;;;28.70;43.80;;;;;;1589573;73;518;-71
2022/07/26 04:09:17;;;;;;;;;;;28.80;43.80;;;;;;1601491;73;1098;-72
2022/07/26 04:11:19;;;;;;;;;;;28.70;43.80;;;;;;1583918;73;696;-71
2022/07/26 04:13:22;;;;;;;;;;;28.70;43.70;;;;;;1589053;73;1940;-69
2022/07/26 04:15:24;;;;;;;;;;;28.60;43.70;;;;;;1598675;73;729;-69
2022/07/26 04:17:26;;;;;;;;;;;28.70;43.70;;;;;;1598055;73;676;-67
2022/07/26 04:19:28;;;;;;;;;;;28.70;43.80;;;;;;1580946;74;1601;-70
2022/07/26 04:21:30;;;;;;;;;;;28.70;43.80;;;;;;1595960;74;898;-70
2022/07/26 04:23:31;;;;;;;;;;;28.70;43.80;;;;;;1595890;74;653;-70
2022/07/26 04:25:33;;;;;;;;;;;28.60;43.80;;;;;;1595987;74;686;-70
2022/07/26 04:27:36;;;;;;;;;;;28.70;43.80;;;;;;1591856;74;798;-71
2022/07/26 04:29:37;;;;;;;;;;;28.70;43.80;;;;;;1593825;74;1132;-71
2022/07/26 04:31:39;;;;;;;;;;;28.60;43.70;;;;;;1592815;73;749;-70
2022/07/26 04:33:41;;;;;;;;;;;28.70;43.70;;;;;;1589944;74;1925;-70
2022/07/26 04:35:43;;;;;;;;;;;28.60;43.80;;;;;;1593019;73;730;-69
2022/07/26 04:37:45;;;;;;;;;;;28.70;43.90;;;;;;1596050;73;721;-72
2022/07/26 04:39:47;;;;;;;;;;;28.60;43.90;;;;;;1589073;73;1099;-70
2022/07/26 04:41:49;;;;;;;;;;;28.70;43.90;;;;;;1594648;74;796;-71
2022/07/26 04:43:51;;;;;;;;;;;28.60;43.90;;;;;;1585314;74;805;-71
2022/07/26 04:45:52;;;;;;;;;;;28.70;43.80;;;;;;1597769;73;696;-70
2022/07/26 04:47:54;;;;;;;;;;;28.70;43.80;;;;;;1590830;74;1546;-69
2022/07/26 04:49:56;;;;;;;;;;;28.60;43.90;;;;;;1596028;73;1165;-72
2022/07/26 04:51:58;;;;;;;;;;;28.70;43.80;;;;;;1587674;74;767;-71
2022/07/26 04:54:00;;;;;;;;;;;28.70;43.80;;;;;;1592973;74;1937;-70
2022/07/26 04:56:02;;;;;;;;;;;28.60;43.90;;;;;;1592311;73;720;-67
2022/07/26 04:58:04;;;;;;;;;;;28.70;43.90;;;;;;1589930;73;639;-69
2022/07/26 05:00:06;;;;;;;;;;;28.60;43.90;;;;;;1594598;73;1041;-71
2022/07/26 05:02:08;;;;;;;;;;;28.70;44.00;;;;;;1586163;73;1537;-68
2022/07/26 05:04:10;;;;;;;;;;;28.70;44.10;;;;;;1593935;73;647;-69
2022/07/26 05:06:11;;;;;;;;;;;28.70;44.20;;;;;;1594925;73;683;-71
2022/07/26 05:08:15;;;;;;;;;;;28.60;44.20;;;;;;1595064;74;747;-70
2022/07/26 05:10:17;;;;;;;;;;;28.60;44.20;;;;;;1591499;73;1109;-68
2022/07/26 05:12:19;;;;;;;;;;;28.60;44.20;;;;;;1595893;74;697;-67
2022/07/26 05:14:21;;;;;;;;;;;28.60;44.20;;;;;;1597283;73;1922;-67
2022/07/26 05:16:23;;;;;;;;;;;28.70;44.30;;;;;;1595595;73;1517;-67
2022/07/26 05:18:25;;;;;;;;;;;28.60;44.40;;;;;;1590823;74;692;-69
2022/07/26 05:20:27;;;;;;;;;;;28.60;44.30;;;;;;1596653;73;745;-69
2022/07/26 05:22:29;;;;;;;;;;;28.50;44.40;;;;;;1582439;73;696;-69
2022/07/26 05:24:31;;;;;;;;;;;28.60;44.40;;;;;;1586938;73;730;-69
2022/07/26 05:26:32;;;;;;;;;;;28.60;44.40;;;;;;1581423;73;688;-69
2022/07/26 05:28:34;;;;;;;;;;;28.50;44.40;;;;;;1588611;73;1143;-69
2022/07/26 05:30:36;;;;;;;;;;;28.50;44.50;;;;;;1584295;73;1613;-71
2022/07/26 05:32:38;;;;;;;;;;;28.50;44.50;;;;;;1582395;73;955;-69
2022/07/26 05:34:40;;;;;;;;;;;28.50;44.50;;;;;;1586076;73;1920;-70
2022/07/26 05:36:42;;;;;;;;;;;28.50;44.50;;;;;;1585464;73;641;-67
2022/07/26 05:38:44;;;;;;;;;;;28.60;44.50;;;;;;1597998;73;1218;-69
2022/07/26 05:40:46;;;;;;;;;;;28.50;44.60;;;;;;1596683;74;705;-69
2022/07/26 05:42:48;;;;;;;;;;;28.50;44.60;;;;;;1592871;73;692;-67
2022/07/26 05:44:49;;;;;;;;;;;28.60;44.60;;;;;;1600929;73;1579;-69
2022/07/26 05:46:51;;;;;;;;;;;28.50;44.60;;;;;;1595349;74;784;-69
2022/07/26 05:48:53;;;;;;;;;;;28.50;44.70;;;;;;1594296;73;1203;-69
2022/07/26 05:50:55;;;;;;;;;;;28.50;44.70;;;;;;1589427;73;709;-68
2022/07/26 05:52:57;;;;;;;;;;;28.50;44.70;;;;;;1592796;73;789;-69
2022/07/26 05:54:59;;;;;;;;;;;28.50;44.70;;;;;;1594359;73;1921;-69
2022/07/26 05:57:01;;;;;;;;;;;28.50;44.70;;;;;;1588197;74;714;-69
2022/07/26 05:59:03;;;;;;;;;;;28.50;44.70;;;;;;1589949;73;1565;-69
2022/07/26 06:01:05;;;;;;;;;;;28.40;44.70;;;;;;1592665;74;654;-69
2022/07/26 06:03:21;;;;;;;;;;;28.40;44.70;;;;;;1595123;74;735;-67
2022/07/26 06:05:23;;;;;;;;;;;28.40;44.80;;;;;;1589557;73;704;-69
2022/07/26 06:07:25;;;;;;;;;;;28.40;44.80;;;;;;1595857;74;739;-69
2022/07/26 06:09:27;;;;;;;;;;;28.40;44.80;;;;;;1594793;74;1169;-68
2022/07/26 06:11:29;;;;;;;;;;;28.40;44.80;;;;;;1595698;74;640;-69
2022/07/26 06:13:31;;;;;;;;;;;28.30;44.80;;;;;;1582044;74;1581;-69
2022/07/26 06:15:32;;;;;;;;;;;28.40;44.80;;;;;;1594073;74;1937;-69
2022/07/26 06:17:36;;;;;;;;;;;28.30;45.00;;;;;;1596026;74;708;-69
2022/07/26 06:19:38;;;;;;;;;;;28.30;44.80;;;;;;1586245;73;1155;-69
2022/07/26 06:21:41;;;;;;;;;;;28.30;44.70;;;;;;1578419;73;700;-68
2022/07/26 06:23:43;;;;;;;;;;;28.30;44.50;;;;;;1586302;73;684;-68
2022/07/26 06:25:45;;;;;;;;;;;28.30;44.40;;;;;;1584535;73;742;-68
2022/07/26 06:27:47;;;;;;;;;;;28.20;44.40;;;;;;1580687;73;786;-68
2022/07/26 06:29:48;;;;;;;;;;;28.30;44.30;;;;;;1587960;73;1141;-69
2022/07/26 06:31:50;;;;;;;;;;;28.30;44.30;;;;;;1582035;73;750;-69
2022/07/26 06:33:52;;;;;;;;;;;28.20;44.30;;;;;;1589535;73;773;-68
2022/07/26 06:35:54;;;;;;;;;;;28.20;44.30;;;;;;1591453;73;1909;-68
2022/07/26 06:37:56;;;;;;;;;;;28.20;44.40;;;;;;1594987;74;704;-69
2022/07/26 06:39:58;;;;;;;;;;;28.20;44.30;;;;;;1597658;73;1593;-69
2022/07/26 06:42:00;;;;;;;;;;;28.10;44.30;;;;;;1585526;73;791;-70
2022/07/26 06:44:02;;;;;;;;;;;28.10;44.20;;;;;;1575169;73;778;-69
2022/07/26 06:46:04;;;;;;;;;;;28.10;44.30;;;;;;1587937;73;736;-69
2022/07/26 06:48:06;;;;;;;;;;;28.10;44.20;;;;;;1587911;73;733;-68
2022/07/26 06:50:08;;;;;;;;;;;28.10;44.30;;;;;;1595274;71;2095;-67
2022/07/26 06:52:10;;;;;;;;;;;28.10;44.20;;;;;;1589593;74;714;-67
2022/07/26 06:54:11;;;;;;;;;;;28.00;44.30;;;;;;1582985;73;1944;-67
2022/07/26 06:56:13;;;;;;;;;;;28.00;44.30;;;;;;1586009;73;674;-67
2022/07/26 06:58:15;;;;;;;;;;;28.00;44.30;;;;;;1588633;73;733;-67
2022/07/26 07:00:17;;;;;;;;;;;28.00;44.30;;;;;;1587099;73;1164;-67
2022/07/26 07:02:19;;;;;;;;;;;28.00;44.40;;;;;;1588303;73;692;-67
2022/07/26 07:04:21;;;;;;;;;;;28.00;44.40;;;;;;1594682;73;651;-66
2022/07/26 07:06:23;;;;;;;;;;;28.00;44.40;;;;;;1593393;73;675;-67
2022/07/26 07:08:25;;;;;;;;;;;28.00;44.30;;;;;;1584836;73;1459;-67
2022/07/26 07:10:27;;;;;;;;;;;28.00;44.30;;;;;;1586199;73;1093;-67
2022/07/26 07:12:28;;;;;;;;;;;27.90;43.50;;;;;;1586439;73;659;-67
2022/07/26 07:14:30;;;;;;;;;;;27.90;43.50;;;;;;1581508;73;1936;-66
2022/07/26 07:16:32;;;;;;;;;;;28.00;44.10;;;;;;1587098;73;773;-67
2022/07/26 07:18:34;;;;;;;;;;;28.00;44.10;;;;;;1583107;73;666;-67
2022/07/26 07:20:36;;;;;;;;;;;28.00;44.10;;;;;;1591329;73;1171;-67
2022/07/26 07:22:38;;;;;;;;;;;27.90;43.50;;;;;;1592183;73;1468;-67
2022/07/26 07:24:40;;;;;;;;;;;28.00;44.20;;;;;;1585413;73;679;-67
2022/07/26 07:26:42;;;;;;;;;;;28.00;44.10;;;;;;1589836;73;697;-66
2022/07/26 07:28:44;;;;;;;;;;;27.90;43.60;;;;;;1576055;73;721;-68
2022/07/26 07:30:46;;;;;;;;;;;27.90;43.40;;;;;;1580643;73;1171;-67
2022/07/26 07:32:48;;;;;;;;;;;27.90;43.50;;;;;;1581629;73;806;-66
2022/07/26 07:34:50;;;;;;;;;;;27.80;43.60;;;;;;1575891;73;1942;-67
2022/07/26 07:36:52;;;;;;;;;;;27.90;43.70;;;;;;1580827;73;1430;-67
2022/07/26 07:38:54;;;;;;;;;;;27.80;43.70;;;;;;1583578;73;682;-67
2022/07/26 07:40:55;;;;;;;;;;;27.80;43.70;;;;;;1576476;73;1156;-66
2022/07/26 07:42:57;;;;;;;;;;;27.80;43.70;;;;;;1576771;73;635;-66
2022/07/26 07:44:59;;;;;;;;;;;27.80;43.80;;;;;;1573632;73;673;-66
2022/07/26 07:47:01;;;;;;;;;;;27.80;43.70;;;;;;1579232;73;667;-67
2022/07/26 07:49:03;;;;;;;;;;;27.80;43.80;;;;;;1575598;73;680;-67
2022/07/26 07:51:05;;;;;;;;;;;27.80;43.70;;;;;;1579889;73;1469;-66
2022/07/26 07:53:07;;;;;;;;;;;27.80;43.70;;;;;;1571210;73;695;-67
2022/07/26 07:55:09;;;;;;;;;;;27.70;43.80;;;;;;1582958;73;1938;-67
2022/07/26 07:57:11;;;;;;;;;;;27.70;43.90;;;;;;1580033;73;704;-67
2022/07/26 07:59:13;;;;;;;;;;;27.70;43.90;;;;;;1577380;73;681;-67
2022/07/26 08:01:15;;;;;;;;;;;27.70;43.90;;;;;;1584888;73;1206;-66
2022/07/26 08:03:16;;;;;;;;;;;27.70;44.00;;;;;;1578174;73;658;-67
2022/07/26 08:05:18;;;;;;;;;;;27.70;44.00;;;;;;1582766;73;1577;-66
2022/07/26 08:07:20;;;;;;;;;;;27.70;44.00;;;;;;1586225;73;674;-66
2022/07/26 08:09:22;;;;;;;;;;;27.70;44.10;;;;;;1575025;73;664;-66
2022/07/26 08:11:24;;;;;;;;;;;27.70;44.10;;;;;;1576788;73;1140;-66
2022/07/26 08:13:26;;;;;;;;;;;27.70;44.10;;;;;;1579585;73;671;-66
2022/07/26 08:15:28;;;;;;;;;;;27.60;44.10;;;;;;1573924;73;1930;-66
2022/07/26 08:17:30;;;;;;;;;;;27.60;44.20;;;;;;1592194;73;651;-66
2022/07/26 08:19:31;;;;;;;;;;;27.70;44.20;;;;;;1587675;73;1499;-66
2022/07/26 08:21:34;;;;;;;;;;;27.60;44.20;;;;;;1589850;73;1152;-66
2022/07/26 08:23:36;;;;;;;;;;;27.60;44.20;;;;;;1607387;73;641;-66
2022/07/26 08:25:38;;;;;;;;;;;27.60;44.20;;;;;;1594979;73;555;-66
2022/07/26 08:27:39;;;;;;;;;;;27.70;44.20;;;;;;1604113;73;702;-66
2022/07/26 08:29:41;;;;;;;;;;;27.60;44.20;;;;;;1593092;73;701;-66
2022/07/26 08:31:43;;;;;;;;;;;27.60;44.30;;;;;;1593220;73;1082;-66
2022/07/26 08:33:45;;;;;;;;;;;27.60;44.40;;;;;;1598904;73;1478;-67
2022/07/26 08:35:47;;;;;;;;;;;27.70;44.40;;;;;;1604627;73;1935;-66
2022/07/26 08:37:49;;;;;;;;;;;27.70;44.40;;;;;;1588515;73;626;-66
2022/07/26 08:39:51;;;;;;;;;;;27.60;44.40;;;;;;1579718;73;1270;-66
2022/07/26 08:41:53;;;;;;;;;;;27.70;44.40;;;;;;1576872;73;720;-68
2022/07/26 08:43:54;;;;;;;;;;;27.70;44.60;;;;;;1575913;73;747;-68
2022/07/26 08:46:01;;;;;;;;;;;27.70;44.70;;;;;;1572380;73;702;-68
2022/07/26 08:48:02;;;;;;;;;;;27.60;44.70;;;;;;1580666;73;1427;-69
2022/07/26 08:50:05;;;;;;;;;;;27.70;44.80;;;;;;1580488;73;1144;-68
2022/07/26 08:52:07;;;;;;;;;;;27.70;44.80;;;;;;1572292;73;1030;-69
2022/07/26 08:54:10;;;;;;;;;;;27.60;44.90;;;;;;1574357;73;682;-68
2022/07/26 08:56:12;;;;;;;;;;;27.70;44.80;;;;;;1576463;73;1887;-69
2022/07/26 08:58:14;;;;;;;;;;;27.70;44.80;;;;;;1571357;73;678;-69
2022/07/26 09:00:20;;;;;;;;;;;27.70;44.80;;;;;;1570871;73;1209;-69
2022/07/26 09:02:22;;;;;;;;;;;27.70;45.00;;;;;;1574487;73;1378;-70
2022/07/26 09:04:25;;;;;;;;;;;27.70;45.00;;;;;;1577168;73;673;-69
2022/07/26 09:06:27;;;;;;;;;;;27.70;45.00;;;;;;1577005;73;637;-67
2022/07/26 09:08:29;;;;;;;;;;;27.70;45.00;;;;;;1573121;73;730;-66
2022/07/26 09:10:32;;;;;;;;;;;27.70;45.00;;;;;;1574007;73;1157;-67
2022/07/26 09:12:34;;;;;;;;;;;27.60;45.10;;;;;;1568386;73;2035;-66
2022/07/26 09:14:37;;;;;;;;;;;27.70;45.10;;;;;;1572327;73;1491;-67
2022/07/26 09:16:38;;;;;;;;;;;27.70;45.10;;;;;;1573306;73;1907;-66
2022/07/26 09:18:40;;;;;;;;;;;27.70;45.30;;;;;;1572137;73;687;-66
2022/07/26 09:22:36;;;;;;;;;;;27.70;45.30;;;;;;1578380;72;1226;-56
2022/07/26 09:24:42;;;;;;;;;;;27.70;45.20;;;;;;1541123;75;699;-54
2022/07/26 09:26:46;;;;;;;;;;;27.70;45.20;;;;;;1534446;76;759;-54
2022/07/26 09:28:49;;;;;;;;;;;27.70;45.20;;;;;;1530810;76;1817;-57
2022/07/26 09:30:53;;;;;;;;;;;27.70;45.40;;;;;;1537623;76;1605;-57
2022/07/26 09:33:05;;;;;;;;;;;27.80;45.50;;;;;;1535117;76;1862;-55
2022/07/26 09:35:11;;;;;;;;;;;27.80;45.50;;;;;;1535274;76;703;-54
2022/07/26 09:37:13;;;;;;;;;;;27.80;45.50;;;;;;1546745;75;1736;-54
2022/07/26 09:39:15;;;;;;;;;;;27.80;45.40;;;;;;1541027;76;754;-58
2022/07/26 09:41:25;;;;;;;;;;;27.80;45.50;;;;;;1544630;76;1905;-58
2022/07/26 09:43:29;;;;;;;;;;;27.90;45.60;;;;;;1541480;75;1572;-56
2022/07/26 09:45:31;;;;;;;;;;;27.80;45.60;;;;;;1534897;76;2001;-57
2022/07/26 09:47:37;;;;;;;;;;;27.80;45.50;;;;;;1538155;76;701;-54
2022/07/26 09:49:39;;;;;;;;;;;27.80;45.70;;;;;;1543067;76;660;-59
2022/07/26 09:51:42;;;;;;;;;;;27.70;45.70;;;;;;1549105;75;755;-57
2022/07/26 09:53:45;;;;;;;;;;;27.80;45.70;;;;;;1546636;76;1389;-54
2022/07/26 09:55:48;;;;;;;;;;;27.80;45.70;;;;;;1542794;75;671;-56
2022/07/26 09:57:50;;;;;;;;;;;27.80;45.60;;;;;;1538547;76;1462;-56
2022/07/26 09:59:52;;;;;;;;;;;27.90;45.60;;;;;;1542198;75;684;-57
2022/07/26 10:01:54;;;;;;;;;;;28.00;46.00;;;;;;1544942;75;1922;-55
2022/07/26 10:03:56;;;;;;;;;;;27.90;45.40;;;;;;1547616;76;677;-56
2022/07/26 10:05:58;;;;;;;;;;;27.90;45.50;;;;;;1554215;75;690;-56
2022/07/26 10:08:00;;;;;;;;;;;28.00;46.50;;;;;;1551479;76;679;-57
2022/07/26 10:10:03;;;;;;;;;;;27.90;45.50;;;;;;1556979;76;691;-58
2022/07/26 10:12:07;;;;;;;;;;;27.90;45.70;;;;;;1542577;76;1673;-54
2022/07/26 10:14:17;;;;;;;;;;;27.80;45.70;;;;;;1533773;76;740;-56
2022/07/26 10:16:33;;;;;;;;;;;27.80;46.10;;;;;;1542648;75;2018;-57
2022/07/26 10:18:39;;;;;;;;;;;27.70;46.70;;;;;;1561938;76;696;-59
2022/07/26 10:20:42;;;;;;;;;;;27.60;46.70;;;;;;1548202;75;640;-58
2022/07/26 10:22:45;;;;;;;;;;;27.60;46.80;;;;;;1534997;76;1944;-56
2022/07/26 10:24:47;;;;;;;;;;;27.60;46.80;;;;;;1537372;76;677;-57
2022/07/26 10:26:49;;;;;;;;;;;27.70;47.00;;;;;;1536172;75;1612;-56
2022/07/26 10:28:50;;;;;;;;;;;27.70;47.10;;;;;;1539767;76;697;-55
2022/07/26 10:30:53;;;;;;;;;;;27.80;47.10;;;;;;1538231;76;671;-56
2022/07/26 10:32:59;;;;;;;;;;;27.70;47.00;;;;;;1537117;76;1192;-55
2022/07/26 10:35:00;;;;;;;;;;;27.70;47.10;;;;;;1533592;75;757;-56
2022/07/26 10:37:07;;;;;;;;;;;27.70;47.20;;;;;;1536763;76;640;-56
2022/07/26 10:39:10;;;;;;;;;;;27.70;46.90;;;;;;1538532;76;1489;-58
2022/07/26 10:41:11;;;;;;;;;;;27.70;46.90;;;;;;1537296;76;1920;-55
2022/07/26 10:43:14;;;;;;;;;;;27.70;47.10;;;;;;1540686;76;1147;-56
2022/07/26 10:45:17;;;;;;;;;;;27.70;46.80;;;;;;1545874;76;697;-55
2022/07/26 10:47:18;;;;;;;;;;;27.70;46.90;;;;;;1545987;76;678;-57
2022/07/26 10:49:21;;;;;;;;;;;27.60;47.30;;;;;;1540222;76;669;-55
2022/07/26 10:51:26;;;;;;;;;;;27.70;47.50;;;;;;1503106;76;638;-57
2022/07/26 10:53:28;;;;;;;;;;;27.70;47.00;;;;;;1535805;76;1501;-57
2022/07/26 10:55:30;;;;;;;;;;;27.70;47.00;;;;;;1539168;76;595;-58
2022/07/26 10:57:36;;;;;;;;;;;27.70;47.10;;;;;;1536024;76;665;-56
2022/07/26 10:59:38;;;;;;;;;;;27.80;46.80;;;;;;1534416;75;660;-58
2022/07/26 11:01:41;;;;;;;;;;;27.80;46.90;;;;;;1537239;76;1929;-57
2022/07/26 11:03:43;;;;;;;;;;;27.70;46.70;;;;;;1536644;75;678;-55
2022/07/26 11:05:45;;;;;;;;;;;27.70;47.70;;;;;;1547031;76;715;-56
2022/07/26 11:07:48;;;;;;;;;;;27.70;47.10;;;;;;1542300;75;1460;-55
2022/07/26 11:09:52;;;;;;;;;;;27.70;47.00;;;;;;1543856;75;660;-58
2022/07/26 11:11:55;;;;;;;;;;;27.70;46.50;;;;;;1537325;75;1790;-56
2022/07/26 11:14:05;;;;;;;;;;;27.70;46.50;;;;;;1537295;76;658;-59
2022/07/26 11:16:08;;;;;;;;;;;27.70;46.50;;;;;;1545625;76;1674;-56
2022/07/26 11:18:10;;;;;;;;;;;27.70;46.50;;;;;;1544108;76;695;-58
2022/07/26 11:20:13;;;;;;;;;;;27.70;46.30;;;;;;1542502;76;825;-55
2022/07/26 11:22:15;;;;;;;;;;;27.70;46.10;;;;;;1532406;75;1942;-57
2022/07/26 11:24:17;;;;;;;;;;;27.60;46.00;;;;;;1553520;76;634;-56
2022/07/26 11:26:24;;;;;;;;;;;27.60;46.10;;;;;;1544188;76;638;-55
2022/07/26 11:28:26;;;;;;;;;;;27.70;46.00;;;;;;1540433;76;681;-57
2022/07/26 11:30:28;;;;;;;;;;;27.70;46.00;;;;;;1541535;76;684;-58
2022/07/26 11:32:30;;;;;;;;;;;27.70;45.80;;;;;;1547894;75;1137;-58
2022/07/26 11:34:32;;;;;;;;;;;27.80;45.70;;;;;;1536920;76;691;-56
2022/07/26 11:36:41;;;;;;;;;;;27.70;45.70;;;;;;1534320;76;1519;-56
2022/07/26 11:38:52;;;;;;;;;;;27.70;45.70;;;;;;1547022;76;589;-55
2022/07/26 11:40:54;;;;;;;;;;;27.70;45.70;;;;;;1543921;76;719;-53
2022/07/26 11:42:56;;;;;;;;;;;27.70;45.70;;;;;;1540050;76;1922;-54
2022/07/26 11:44:58;;;;;;;;;;;27.60;45.70;;;;;;1538192;76;698;-54
2022/07/26 11:47:00;;;;;;;;;;;27.70;45.70;;;;;;1541029;76;666;-53
2022/07/26 11:49:02;;;;;;;;;;;27.70;45.70;;;;;;1508586;76;670;-53
2022/07/26 11:51:10;;;;;;;;;;;27.70;45.70;;;;;;1542775;76;1462;-54
2022/07/26 11:53:20;;;;;;;;;;;27.70;45.70;;;;;;1531854;76;1131;-58
2022/07/26 11:55:28;;;;;;;;;;;27.70;45.70;;;;;;1547716;76;1145;-57
2022/07/26 11:57:30;;;;;;;;;;;27.60;45.90;;;;;;1541680;76;680;-56
2022/07/26 11:59:32;;;;;;;;;;;27.70;45.80;;;;;;1545022;76;678;-56
2022/07/26 12:01:34;;;;;;;;;;;27.70;45.90;;;;;;1551280;75;1945;-54
2022/07/26 12:03:37;;;;;;;;;;;27.60;46.00;;;;;;1534701;76;1416;-57
2022/07/26 12:05:40;;;;;;;;;;;27.70;46.10;;;;;;1547577;76;686;-54
2022/07/26 12:07:58;;;;;;;;;;;27.60;46.20;;;;;;1535709;76;692;-54
2022/07/26 12:10:00;;;;;;;;;;;27.60;46.40;;;;;;1557989;76;694;-52
2022/07/26 12:12:03;;;;;;;;;;;27.60;46.50;;;;;;1541318;76;1148;-53